x

East Scotia Slope (44137) Wave Buoy

4:00pm - Sun 24th May 2015 All times are EDT. -4 hours from GMT.

  • Sig Wave height 8.2ft
  • Peak Period 7s
  • Wind
    27mph, 34mph gusts
  • Sea Temp 60°f
  • Air Temp 58°f
  • Sea Pressure 1025.4mb
  • East Scotia Slope
  • East Scotia Slope

More Historic Weather Station data

Upgrade to MSW Pro to gain access to the past 30 days of data for over 8000 Wavebouys and Weather Stations around the globe.

Join Pro

Comparision Forecast

View Surf forecast
   
Sun 05/24 4:00pm 8ft 7s 27 34 mph 1025.4mb 60f 58f
3:00pm 7.5ft 7s 27 31 mph 1025.8mb 60f 58f
2:00pm 7.5ft 6s 27 31 mph 1026.1mb 60f 58f
1:00pm 7ft 6s 27 31 mph 1026.8mb 60f 57f
12:00pm 7ft 5s 25 29 mph 1027.1mb 60f 57f
11:00am 6.5ft 8s 25 29 mph 1027.3mb 61f 56f
10:00am 7ft 8s 22 27 mph 1027.6mb 61f 56f
9:00am 7ft 8s 20 25 mph 1028mb 60f 55f
8:00am 6.5ft 8s 20 25 mph 1028.2mb 60f 55f
7:00am 7ft 9s 20 25 mph 1028.7mb 60f 54f
6:00am 7.5ft 8s 20 22 mph 1028.6mb 60f 53f
5:00am 8ft 9s 20 25 mph 1028.1mb 60f 53f
4:00am 8ft 8s 18 22 mph 1027.6mb 60f 53f
3:00am 9ft 9s 13 16 mph 1027.4mb 60f 52f
2:00am 9.5ft 9s 18 22 mph 1027.2mb 60f 52f
1:00am 10ft 8s 20 25 mph 1027.2mb 60f 52f
12:00am 10.5ft 9s 20 27 mph 1027.2mb 60f 51f
Sat 05/23 11:00pm 11ft 9s 22 27 mph 1026.8mb 60f 51f
10:00pm 12ft 10s 22 27 mph 1026.4mb 61f 50f
9:00pm 12ft 10s 25 29 mph 1025.6mb 61f 50f
8:00pm 13ft 9s 25 31 mph 1024.8mb 61f 49f
7:00pm 13ft 8s 27 34 mph 1024.1mb 61f 49f
6:00pm 12ft 8s 29 36 mph 1023.5mb 61f 48f
5:00pm 12ft 8s 29 40 mph 1022.7mb 61f 48f
4:00pm 11ft 7s 31 40 mph 1022.2mb 61f 48f
3:00pm 11.5ft 10s 31 38 mph 1021.4mb 61f 48f
2:00pm 11ft 10s 29 36 mph 1020.6mb 61f 49f
1:00pm 10ft 10s 31 36 mph 1019.4mb 61f 51f
12:00pm 10ft 11s 29 34 mph 1018.5mb 61f 52f
11:00am 11ft 10s 27 29 mph 1017.8mb 61f 55f
10:00am 11ft 10s 25 31 mph 1016.6mb 61f 59f
9:00am 11.5ft 11s 18 22 mph 1016.2mb 61f 59f
8:00am 9ft 11s 25 29 mph 1016.1mb 61f 60f
7:00am 7ft 11s 18 22 mph 1016.5mb 61f 58f
6:00am 7.5ft 9s 16 18 mph 1016.8mb 61f 57f
5:00am 7.5ft 9s 11 16 mph 1016.7mb 61f 55f
4:00am 7.5ft 9s 13 16 mph 1016.4mb 61f 53f
3:00am 8.5ft 8s 13 18 mph 1016.2mb 61f 53f
2:00am 8ft 8s 20 25 mph 1015.9mb 61f 53f
1:00am 8ft 8s 20 25 mph 1015.9mb 61f 53f
12:00am 7.5ft 7s 22 25 mph 1015.5mb 61f 52f
Fri 05/22 11:00pm 7ft 7s 22 25 mph 1014.5mb 61f 52f
10:00pm 8ft 7s 22 27 mph 1012.7mb 61f 53f
9:00pm 9ft 7s 22 27 mph 1010.4mb 61f 53f
8:00pm 10ft 7s 29 36 mph 1008mb 61f 52f
7:00pm  -   -  34
mph
1002.5mb - 56f
6:00pm 9ft 7s 31 36 mph 1000.6mb 62f 53f
5:00pm 8ft 6s 29 36 mph 998mb 62f 65f
4:00pm 6.5ft 5s 29 34 mph 998.4mb 62f 66f
3:00pm 6ft 6s 27 31 mph 999.6mb 62f 66f
2:00pm 6.5ft 6s 22 29 mph 1002.1mb 62f 64f
1:00pm 6.5ft 6s 22 27 mph 1004.7mb 61f 61f
12:00pm  -   -  25
mph
- - -
11:00am 5ft 5s 22 27 mph 1010.2mb 62f 60f
10:00am 4.5ft 5s 22 25 mph 1012.7mb 62f 59f
9:00am 4ft 4s 22 27 mph 1013.4mb 62f 59f
8:00am 3.5ft 7s 20 25 mph 1014.8mb 62f 59f
7:00am 3ft 7s 18 20 mph 1015.2mb 62f 58f
6:00am 3ft 7s 13 16 mph 1016mb 62f 58f
5:00am 3ft 7s 9 11 mph 1016.5mb 62f 58f
4:00am 3ft 6s 7 11 mph 1016.8mb 62f 58f
3:00am 3ft 6s 9 13 mph 1017.6mb 62f 58f
2:00am 3.5ft 6s 7 9 mph 1017.3mb 62f 57f
1:00am 3.5ft 7s 9 11 mph 1017.5mb 62f 57f
12:00am 3.5ft 7s 7 11 mph 1017.4mb 62f 57f
Thu 05/21 11:00pm 3.5ft 7s 7 9 mph 1017.5mb 62f 56f
10:00pm 4ft 7s 7 11 mph 1017.5mb 62f 56f
9:00pm 4ft 7s 13 16 mph 1017.5mb 62f 56f
8:00pm 4ft 7s 13 16 mph 1016.9mb 62f 56f
7:00pm 4ft 7s 13 16 mph 1016.3mb 62f 56f
6:00pm 4ft 7s 13 18 mph 1015.7mb 62f 56f
5:00pm 4.5ft 7s 11 13 mph 1015.3mb 62f 56f
4:00pm 4.5ft 6s 13 18 mph 1015.2mb 62f 56f
3:00pm 4.5ft 7s 16 18 mph 1015mb 62f 56f
2:00pm 5ft 7s 13 16 mph 1014.6mb 62f 56f
1:00pm 5ft 7s 13 18 mph 1014.4mb 62f 55f
12:00pm 5ft 7s 13 16 mph 1014.2mb 62f 55f
11:00am 5ft 7s 16 20 mph 1013.8mb 62f 55f
10:00am 5.5ft 7s 16 20 mph 1013.1mb 62f 55f
9:00am 5.5ft 7s 18 22 mph 1012.5mb 61f 55f
8:00am 5.5ft 7s 18 22 mph 1012mb 61f 55f
7:00am 6ft 8s 20 25 mph 1011.1mb 61f 55f
6:00am 6ft 8s 20 25 mph 1010.2mb 61f 55f
5:00am 6.5ft 8s 22 27 mph 1009.2mb 61f 54f
4:00am 6ft 8s 25 29 mph 1008.2mb 61f 54f
3:00am 6ft 8s 22 27 mph 1007.3mb 61f 55f
2:00am 6.5ft 8s 22 27 mph 1006.3mb 61f 55f
1:00am 6.5ft 7s 20 25 mph 1005.7mb 62f 55f
12:00am 6ft 7s 18 22 mph 1005.4mb 62f 55f
Wed 05/20 11:00pm 6ft 6s 18 22 mph 1005.1mb 62f 55f
10:00pm 6.5ft 6s 20 22 mph 1004.9mb 61f 55f